Pulaski, New York
Current Conditions -  °F | °C
As of 10:54 AM on Thursday 27 Nov 2014 (Local Time) from KFZY Reporting Station
Light Snow Light Snow  
Wind Chill: 29°   Ceiling: 2800
Heat Index: 29°   Visibility: 2mi
Dew Point: 24°   Wind: 0mph
Humidity: 82%   Direction: NA
Pressure: 30.04"   Gusts: NA
Location:  43.57°N, 76.13°W
Report Text: KFZY 271554Z AUTO 00000KT 2SM -SN FEW010 OVC028 M02/M04 A3004 RMK AO2 SLP178 P0000 T10171044
Loading
Personal Weather Stations






























Interactive Weather Map New forecast layout! Learn more

10-Day Weather Forecast

Advertisements
Track Severe Weather on mobile